sensor_id;sensor_type;location;lat;lon;timestamp;P1;durP1;ratioP1;P2;durP2;ratioP2
14381;SDS011;7275;50.328;8.720;2023-04-08T00:00:24;1.73;;;1.40;;
14381;SDS011;7275;50.328;8.720;2023-04-08T00:02:52;1.50;;;1.40;;
14381;SDS011;7275;50.328;8.720;2023-04-08T00:05:20;1.83;;;1.50;;
14381;SDS011;7275;50.328;8.720;2023-04-08T00:07:47;1.60;;;1.50;;
14381;SDS011;7275;50.328;8.720;2023-04-08T00:10:15;1.60;;;1.50;;
14381;SDS011;7275;50.328;8.720;2023-04-08T00:12:43;1.50;;;1.40;;
14381;SDS011;7275;50.328;8.720;2023-04-08T00:15:10;1.87;;;1.50;;
14381;SDS011;7275;50.328;8.720;2023-04-08T00:17:39;1.50;;;1.40;;
14381;SDS011;7275;50.328;8.720;2023-04-08T00:20:07;1.60;;;1.50;;
14381;SDS011;7275;50.328;8.720;2023-04-08T00:22:35;1.63;;;1.53;;
14381;SDS011;7275;50.328;8.720;2023-04-08T00:25:03;1.70;;;1.60;;
14381;SDS011;7275;50.328;8.720;2023-04-08T00:27:34;1.60;;;1.50;;
14381;SDS011;7275;50.328;8.720;2023-04-08T00:30:02;1.47;;;1.37;;
14381;SDS011;7275;50.328;8.720;2023-04-08T00:32:30;1.80;;;1.70;;
14381;SDS011;7275;50.328;8.720;2023-04-08T00:34:59;1.60;;;1.50;;
14381;SDS011;7275;50.328;8.720;2023-04-08T00:37:27;1.60;;;1.50;;
14381;SDS011;7275;50.328;8.720;2023-04-08T00:39:56;1.90;;;1.80;;
14381;SDS011;7275;50.328;8.720;2023-04-08T00:42:23;1.73;;;1.63;;
14381;SDS011;7275;50.328;8.720;2023-04-08T00:44:51;1.83;;;1.73;;
14381;SDS011;7275;50.328;8.720;2023-04-08T00:47:18;1.87;;;1.77;;
14381;SDS011;7275;50.328;8.720;2023-04-08T00:49:46;1.87;;;1.77;;
14381;SDS011;7275;50.328;8.720;2023-04-08T00:52:15;3.23;;;1.90;;
14381;SDS011;7275;50.328;8.720;2023-04-08T00:54:43;2.30;;;2.00;;
14381;SDS011;7275;50.328;8.720;2023-04-08T00:57:10;2.43;;;1.87;;
14381;SDS011;7275;50.328;8.720;2023-04-08T00:59:38;2.50;;;2.30;;
14381;SDS011;7275;50.328;8.720;2023-04-08T01:02:08;2.40;;;2.20;;
14381;SDS011;7275;50.328;8.720;2023-04-08T01:04:43;2.37;;;2.17;;
14381;SDS011;7275;50.328;8.720;2023-04-08T01:07:21;2.80;;;2.60;;
14381;SDS011;7275;50.328;8.720;2023-04-08T01:09:54;3.40;;;2.67;;
14381;SDS011;7275;50.328;8.720;2023-04-08T01:12:24;2.80;;;2.60;;
14381;SDS011;7275;50.328;8.720;2023-04-08T01:14:54;2.97;;;2.67;;
14381;SDS011;7275;50.328;8.720;2023-04-08T01:17:26;3.00;;;2.70;;
14381;SDS011;7275;50.328;8.720;2023-04-08T01:19:55;3.00;;;2.80;;
14381;SDS011;7275;50.328;8.720;2023-04-08T01:22:28;2.73;;;2.53;;
14381;SDS011;7275;50.328;8.720;2023-04-08T01:25:04;3.67;;;3.00;;
14381;SDS011;7275;50.328;8.720;2023-04-08T01:27:36;3.00;;;2.80;;
14381;SDS011;7275;50.328;8.720;2023-04-08T01:30:05;2.67;;;2.47;;
14381;SDS011;7275;50.328;8.720;2023-04-08T01:32:35;2.63;;;2.43;;
14381;SDS011;7275;50.328;8.720;2023-04-08T01:35:04;3.17;;;2.80;;
14381;SDS011;7275;50.328;8.720;2023-04-08T01:37:33;3.33;;;3.03;;
14381;SDS011;7275;50.328;8.720;2023-04-08T01:40:02;3.30;;;3.00;;
14381;SDS011;7275;50.328;8.720;2023-04-08T01:42:33;3.80;;;3.50;;
14381;SDS011;7275;50.328;8.720;2023-04-08T01:45:04;3.70;;;3.40;;
14381;SDS011;7275;50.328;8.720;2023-04-08T01:47:36;3.77;;;3.37;;
14381;SDS011;7275;50.328;8.720;2023-04-08T01:50:06;3.60;;;3.30;;
14381;SDS011;7275;50.328;8.720;2023-04-08T01:52:36;3.57;;;3.23;;
14381;SDS011;7275;50.328;8.720;2023-04-08T01:55:07;3.67;;;3.37;;
14381;SDS011;7275;50.328;8.720;2023-04-08T01:57:36;4.43;;;3.40;;
14381;SDS011;7275;50.328;8.720;2023-04-08T02:00:07;4.00;;;3.60;;
14381;SDS011;7275;50.328;8.720;2023-04-08T02:02:38;3.60;;;3.30;;
14381;SDS011;7275;50.328;8.720;2023-04-08T02:05:08;3.70;;;3.40;;
14381;SDS011;7275;50.328;8.720;2023-04-08T02:07:36;3.80;;;3.27;;
14381;SDS011;7275;50.328;8.720;2023-04-08T02:10:04;3.97;;;3.60;;
14381;SDS011;7275;50.328;8.720;2023-04-08T02:12:32;4.20;;;3.80;;
14381;SDS011;7275;50.328;8.720;2023-04-08T02:15:00;5.10;;;3.80;;
14381;SDS011;7275;50.328;8.720;2023-04-08T02:17:30;4.10;;;3.70;;
14381;SDS011;7275;50.328;8.720;2023-04-08T02:20:03;4.47;;;4.07;;
14381;SDS011;7275;50.328;8.720;2023-04-08T02:22:36;4.10;;;3.80;;
14381;SDS011;7275;50.328;8.720;2023-04-08T02:25:07;4.60;;;3.90;;
14381;SDS011;7275;50.328;8.720;2023-04-08T02:27:39;4.30;;;3.90;;
14381;SDS011;7275;50.328;8.720;2023-04-08T02:30:09;4.23;;;3.83;;
14381;SDS011;7275;50.328;8.720;2023-04-08T02:32:39;4.50;;;4.10;;
14381;SDS011;7275;50.328;8.720;2023-04-08T02:35:08;4.47;;;4.07;;
14381;SDS011;7275;50.328;8.720;2023-04-08T02:37:38;4.30;;;3.90;;
14381;SDS011;7275;50.328;8.720;2023-04-08T02:40:21;4.67;;;4.20;;
14381;SDS011;7275;50.328;8.720;2023-04-08T02:42:50;4.47;;;4.07;;
14381;SDS011;7275;50.328;8.720;2023-04-08T02:45:18;4.80;;;4.40;;
14381;SDS011;7275;50.328;8.720;2023-04-08T02:47:47;4.53;;;4.13;;
14381;SDS011;7275;50.328;8.720;2023-04-08T02:50:15;4.50;;;4.10;;
14381;SDS011;7275;50.328;8.720;2023-04-08T02:52:42;4.87;;;4.37;;
14381;SDS011;7275;50.328;8.720;2023-04-08T02:55:10;5.07;;;4.57;;
14381;SDS011;7275;50.328;8.720;2023-04-08T02:57:38;4.50;;;4.03;;
14381;SDS011;7275;50.328;8.720;2023-04-08T03:00:07;5.90;;;4.70;;
14381;SDS011;7275;50.328;8.720;2023-04-08T03:02:36;5.20;;;4.70;;
14381;SDS011;7275;50.328;8.720;2023-04-08T03:05:05;4.73;;;4.27;;
14381;SDS011;7275;50.328;8.720;2023-04-08T03:07:34;4.53;;;4.13;;
14381;SDS011;7275;50.328;8.720;2023-04-08T03:10:02;4.70;;;4.30;;
14381;SDS011;7275;50.328;8.720;2023-04-08T03:12:30;4.70;;;4.30;;
14381;SDS011;7275;50.328;8.720;2023-04-08T03:14:58;5.10;;;4.60;;
14381;SDS011;7275;50.328;8.720;2023-04-08T03:17:26;5.77;;;4.57;;
14381;SDS011;7275;50.328;8.720;2023-04-08T03:19:53;5.27;;;4.77;;
14381;SDS011;7275;50.328;8.720;2023-04-08T03:22:22;5.90;;;5.30;;
14381;SDS011;7275;50.328;8.720;2023-04-08T03:24:50;5.17;;;4.67;;
14381;SDS011;7275;50.328;8.720;2023-04-08T03:27:18;5.53;;;4.97;;
14381;SDS011;7275;50.328;8.720;2023-04-08T03:29:45;5.87;;;5.17;;
14381;SDS011;7275;50.328;8.720;2023-04-08T03:32:13;5.87;;;5.30;;
14381;SDS011;7275;50.328;8.720;2023-04-08T03:34:40;6.63;;;5.30;;
14381;SDS011;7275;50.328;8.720;2023-04-08T03:37:08;6.10;;;5.50;;
14381;SDS011;7275;50.328;8.720;2023-04-08T03:39:37;5.90;;;5.30;;
14381;SDS011;7275;50.328;8.720;2023-04-08T03:42:04;6.13;;;5.53;;
14381;SDS011;7275;50.328;8.720;2023-04-08T03:44:32;6.03;;;5.43;;
14381;SDS011;7275;50.328;8.720;2023-04-08T03:46:59;6.47;;;5.77;;
14381;SDS011;7275;50.328;8.720;2023-04-08T03:49:27;6.00;;;5.40;;
14381;SDS011;7275;50.328;8.720;2023-04-08T03:51:55;6.10;;;5.50;;
14381;SDS011;7275;50.328;8.720;2023-04-08T03:54:22;7.60;;;5.60;;
14381;SDS011;7275;50.328;8.720;2023-04-08T03:56:51;6.60;;;5.90;;
14381;SDS011;7275;50.328;8.720;2023-04-08T03:59:18;6.03;;;5.43;;
14381;SDS011;7275;50.328;8.720;2023-04-08T04:01:46;7.13;;;5.90;;
14381;SDS011;7275;50.328;8.720;2023-04-08T04:04:14;6.20;;;5.60;;
14381;SDS011;7275;50.328;8.720;2023-04-08T04:06:42;6.03;;;5.43;;
14381;SDS011;7275;50.328;8.720;2023-04-08T04:09:09;6.13;;;5.53;;
14381;SDS011;7275;50.328;8.720;2023-04-08T04:11:37;6.17;;;5.57;;
14381;SDS011;7275;50.328;8.720;2023-04-08T04:14:06;6.87;;;6.17;;
14381;SDS011;7275;50.328;8.720;2023-04-08T04:16:34;6.93;;;6.23;;
14381;SDS011;7275;50.328;8.720;2023-04-08T04:19:01;7.20;;;6.50;;
14381;SDS011;7275;50.328;8.720;2023-04-08T04:21:29;6.80;;;6.10;;
14381;SDS011;7275;50.328;8.720;2023-04-08T04:23:56;7.03;;;6.30;;
14381;SDS011;7275;50.328;8.720;2023-04-08T04:26:24;6.90;;;6.20;;
14381;SDS011;7275;50.328;8.720;2023-04-08T04:28:52;6.90;;;6.20;;
14381;SDS011;7275;50.328;8.720;2023-04-08T04:31:21;7.00;;;6.30;;
14381;SDS011;7275;50.328;8.720;2023-04-08T04:33:51;7.00;;;6.30;;
14381;SDS011;7275;50.328;8.720;2023-04-08T04:36:19;7.30;;;6.50;;
14381;SDS011;7275;50.328;8.720;2023-04-08T04:38:47;6.60;;;6.00;;
14381;SDS011;7275;50.328;8.720;2023-04-08T04:41:16;7.77;;;6.30;;
14381;SDS011;7275;50.328;8.720;2023-04-08T04:43:44;7.10;;;6.37;;
14381;SDS011;7275;50.328;8.720;2023-04-08T04:46:12;6.93;;;6.23;;
14381;SDS011;7275;50.328;8.720;2023-04-08T04:48:41;6.70;;;6.10;;
14381;SDS011;7275;50.328;8.720;2023-04-08T04:51:08;6.73;;;6.03;;
14381;SDS011;7275;50.328;8.720;2023-04-08T04:53:36;7.57;;;6.23;;
14381;SDS011;7275;50.328;8.720;2023-04-08T04:56:03;6.60;;;5.90;;
14381;SDS011;7275;50.328;8.720;2023-04-08T04:58:31;6.93;;;6.17;;
14381;SDS011;7275;50.328;8.720;2023-04-08T05:00:59;7.00;;;6.30;;
14381;SDS011;7275;50.328;8.720;2023-04-08T05:03:26;7.27;;;6.57;;
14381;SDS011;7275;50.328;8.720;2023-04-08T05:05:55;6.27;;;5.67;;
14381;SDS011;7275;50.328;8.720;2023-04-08T05:08:23;6.57;;;5.83;;
14381;SDS011;7275;50.328;8.720;2023-04-08T05:10:53;7.17;;;6.47;;
14381;SDS011;7275;50.328;8.720;2023-04-08T05:13:21;7.00;;;6.30;;
14381;SDS011;7275;50.328;8.720;2023-04-08T05:15:49;7.10;;;6.40;;
14381;SDS011;7275;50.328;8.720;2023-04-08T05:18:16;7.17;;;6.23;;
14381;SDS011;7275;50.328;8.720;2023-04-08T05:20:44;6.93;;;6.23;;
14381;SDS011;7275;50.328;8.720;2023-04-08T05:23:13;7.00;;;6.30;;
14381;SDS011;7275;50.328;8.720;2023-04-08T05:25:41;7.10;;;6.33;;
14381;SDS011;7275;50.328;8.720;2023-04-08T05:28:08;7.30;;;6.50;;
14381;SDS011;7275;50.328;8.720;2023-04-08T05:30:36;7.40;;;6.70;;
14381;SDS011;7275;50.328;8.720;2023-04-08T05:33:04;6.90;;;6.20;;
14381;SDS011;7275;50.328;8.720;2023-04-08T05:35:31;7.10;;;6.40;;
14381;SDS011;7275;50.328;8.720;2023-04-08T05:37:59;6.77;;;6.17;;
14381;SDS011;7275;50.328;8.720;2023-04-08T05:40:28;6.67;;;6.07;;
14381;SDS011;7275;50.328;8.720;2023-04-08T05:42:55;7.37;;;6.13;;
14381;SDS011;7275;50.328;8.720;2023-04-08T05:45:23;7.07;;;6.37;;
14381;SDS011;7275;50.328;8.720;2023-04-08T05:47:50;7.00;;;6.30;;
14381;SDS011;7275;50.328;8.720;2023-04-08T05:50:18;7.13;;;6.43;;
14381;SDS011;7275;50.328;8.720;2023-04-08T05:52:46;7.37;;;6.63;;
14381;SDS011;7275;50.328;8.720;2023-04-08T05:55:13;6.87;;;6.17;;
14381;SDS011;7275;50.328;8.720;2023-04-08T05:57:42;6.30;;;5.43;;
14381;SDS011;7275;50.328;8.720;2023-04-08T06:00:10;6.87;;;6.17;;
14381;SDS011;7275;50.328;8.720;2023-04-08T06:02:38;6.90;;;6.20;;
14381;SDS011;7275;50.328;8.720;2023-04-08T06:05:06;7.10;;;6.03;;
14381;SDS011;7275;50.328;8.720;2023-04-08T06:07:34;6.53;;;5.93;;
14381;SDS011;7275;50.328;8.720;2023-04-08T06:10:02;6.10;;;5.50;;
14381;SDS011;7275;50.328;8.720;2023-04-08T06:12:30;6.30;;;5.70;;
14381;SDS011;7275;50.328;8.720;2023-04-08T06:14:59;6.13;;;5.53;;
14381;SDS011;7275;50.328;8.720;2023-04-08T06:17:27;5.93;;;5.33;;
14381;SDS011;7275;50.328;8.720;2023-04-08T06:19:54;6.43;;;5.60;;
14381;SDS011;7275;50.328;8.720;2023-04-08T06:22:22;6.10;;;5.50;;
14381;SDS011;7275;50.328;8.720;2023-04-08T06:24:49;5.90;;;5.30;;
14381;SDS011;7275;50.328;8.720;2023-04-08T06:27:17;6.20;;;5.60;;
14381;SDS011;7275;50.328;8.720;2023-04-08T06:29:45;6.50;;;5.87;;
14381;SDS011;7275;50.328;8.720;2023-04-08T06:32:14;5.97;;;5.37;;
14381;SDS011;7275;50.328;8.720;2023-04-08T06:34:43;6.37;;;5.77;;
14381;SDS011;7275;50.328;8.720;2023-04-08T06:37:11;6.00;;;5.40;;
14381;SDS011;7275;50.328;8.720;2023-04-08T06:39:38;6.60;;;5.93;;
14381;SDS011;7275;50.328;8.720;2023-04-08T06:42:06;6.37;;;5.70;;
14381;SDS011;7275;50.328;8.720;2023-04-08T06:44:34;6.57;;;5.87;;
14381;SDS011;7275;50.328;8.720;2023-04-08T06:47:01;6.03;;;5.40;;
14381;SDS011;7275;50.328;8.720;2023-04-08T06:49:30;6.37;;;5.77;;
14381;SDS011;7275;50.328;8.720;2023-04-08T06:51:58;6.60;;;5.30;;
14381;SDS011;7275;50.328;8.720;2023-04-08T06:54:25;6.37;;;5.43;;
14381;SDS011;7275;50.328;8.720;2023-04-08T06:56:53;6.47;;;5.77;;
14381;SDS011;7275;50.328;8.720;2023-04-08T06:59:20;6.13;;;5.53;;
14381;SDS011;7275;50.328;8.720;2023-04-08T07:01:48;5.90;;;5.30;;
14381;SDS011;7275;50.328;8.720;2023-04-08T07:04:15;6.33;;;5.73;;
14381;SDS011;7275;50.328;8.720;2023-04-08T07:06:45;6.00;;;5.40;;
14381;SDS011;7275;50.328;8.720;2023-04-08T07:09:12;5.47;;;4.97;;
14381;SDS011;7275;50.328;8.720;2023-04-08T07:11:40;5.10;;;4.70;;
14381;SDS011;7275;50.328;8.720;2023-04-08T07:14:07;8.20;;;6.13;;
14381;SDS011;7275;50.328;8.720;2023-04-08T07:16:35;8.30;;;7.50;;
14381;SDS011;7275;50.328;8.720;2023-04-08T07:19:02;7.00;;;6.13;;
14381;SDS011;7275;50.328;8.720;2023-04-08T07:21:30;7.30;;;6.00;;
14381;SDS011;7275;50.328;8.720;2023-04-08T07:23:59;5.73;;;5.23;;
14381;SDS011;7275;50.328;8.720;2023-04-08T07:26:26;5.60;;;4.97;;
14381;SDS011;7275;50.328;8.720;2023-04-08T07:28:54;5.67;;;5.17;;
14381;SDS011;7275;50.328;8.720;2023-04-08T07:31:22;5.67;;;5.07;;
14381;SDS011;7275;50.328;8.720;2023-04-08T07:33:50;5.57;;;5.07;;
14381;SDS011;7275;50.328;8.720;2023-04-08T07:36:18;6.17;;;5.10;;
14381;SDS011;7275;50.328;8.720;2023-04-08T07:38:46;5.70;;;5.10;;
14381;SDS011;7275;50.328;8.720;2023-04-08T07:41:15;5.00;;;4.60;;
14381;SDS011;7275;50.328;8.720;2023-04-08T07:43:43;5.70;;;5.20;;
14381;SDS011;7275;50.328;8.720;2023-04-08T07:46:11;5.67;;;5.17;;
14381;SDS011;7275;50.328;8.720;2023-04-08T07:48:39;6.03;;;5.43;;
14381;SDS011;7275;50.328;8.720;2023-04-08T07:51:07;5.97;;;5.37;;
14381;SDS011;7275;50.328;8.720;2023-04-08T07:53:37;6.50;;;5.50;;
14381;SDS011;7275;50.328;8.720;2023-04-08T07:56:09;6.80;;;5.47;;
14381;SDS011;7275;50.328;8.720;2023-04-08T07:58:39;6.27;;;5.63;;
14381;SDS011;7275;50.328;8.720;2023-04-08T08:01:13;6.60;;;5.87;;
14381;SDS011;7275;50.328;8.720;2023-04-08T08:03:43;6.70;;;6.10;;
14381;SDS011;7275;50.328;8.720;2023-04-08T08:06:11;6.87;;;6.27;;
14381;SDS011;7275;50.328;8.720;2023-04-08T08:08:38;6.20;;;5.60;;
14381;SDS011;7275;50.328;8.720;2023-04-08T08:11:06;5.97;;;5.40;;
14381;SDS011;7275;50.328;8.720;2023-04-08T08:13:34;6.00;;;5.40;;
14381;SDS011;7275;50.328;8.720;2023-04-08T08:16:03;6.10;;;5.50;;
14381;SDS011;7275;50.328;8.720;2023-04-08T08:18:34;6.33;;;5.73;;
14381;SDS011;7275;50.328;8.720;2023-04-08T08:21:02;6.03;;;5.50;;
14381;SDS011;7275;50.328;8.720;2023-04-08T08:23:29;5.40;;;4.90;;
14381;SDS011;7275;50.328;8.720;2023-04-08T08:26:00;7.13;;;5.67;;
14381;SDS011;7275;50.328;8.720;2023-04-08T08:28:28;5.70;;;5.20;;
14381;SDS011;7275;50.328;8.720;2023-04-08T08:30:56;5.70;;;5.20;;
14381;SDS011;7275;50.328;8.720;2023-04-08T08:33:25;5.70;;;5.20;;
14381;SDS011;7275;50.328;8.720;2023-04-08T08:35:52;6.23;;;5.50;;
14381;SDS011;7275;50.328;8.720;2023-04-08T08:38:20;5.97;;;5.37;;
14381;SDS011;7275;50.328;8.720;2023-04-08T08:40:52;6.03;;;5.43;;
14381;SDS011;7275;50.328;8.720;2023-04-08T08:43:20;5.80;;;5.30;;
14381;SDS011;7275;50.328;8.720;2023-04-08T08:45:48;5.60;;;5.10;;
14381;SDS011;7275;50.328;8.720;2023-04-08T08:48:16;7.27;;;6.10;;
14381;SDS011;7275;50.328;8.720;2023-04-08T08:50:45;6.60;;;6.00;;
14381;SDS011;7275;50.328;8.720;2023-04-08T08:53:13;7.50;;;6.53;;
14381;SDS011;7275;50.328;8.720;2023-04-08T08:55:40;6.30;;;5.70;;
14381;SDS011;7275;50.328;8.720;2023-04-08T08:58:11;6.73;;;6.03;;
14381;SDS011;7275;50.328;8.720;2023-04-08T09:00:39;6.33;;;5.73;;
14381;SDS011;7275;50.328;8.720;2023-04-08T09:03:14;6.80;;;6.10;;
14381;SDS011;7275;50.328;8.720;2023-04-08T09:05:47;6.60;;;5.80;;
14381;SDS011;7275;50.328;8.720;2023-04-08T09:08:22;6.13;;;5.53;;
14381;SDS011;7275;50.328;8.720;2023-04-08T09:10:54;5.73;;;5.13;;
14381;SDS011;7275;50.328;8.720;2023-04-08T09:13:22;5.57;;;5.07;;
14381;SDS011;7275;50.328;8.720;2023-04-08T09:16:00;8.57;;;5.20;;
14381;SDS011;7275;50.328;8.720;2023-04-08T09:18:30;5.43;;;4.93;;
14381;SDS011;7275;50.328;8.720;2023-04-08T09:21:00;5.20;;;4.70;;
14381;SDS011;7275;50.328;8.720;2023-04-08T09:23:36;5.60;;;5.10;;
14381;SDS011;7275;50.328;8.720;2023-04-08T09:26:08;5.37;;;4.83;;
14381;SDS011;7275;50.328;8.720;2023-04-08T09:28:37;5.00;;;4.60;;
14381;SDS011;7275;50.328;8.720;2023-04-08T09:31:17;5.33;;;4.70;;
14381;SDS011;7275;50.328;8.720;2023-04-08T09:33:46;5.20;;;4.70;;
14381;SDS011;7275;50.328;8.720;2023-04-08T09:36:15;5.30;;;4.80;;
14381;SDS011;7275;50.328;8.720;2023-04-08T09:38:44;5.17;;;4.67;;
14381;SDS011;7275;50.328;8.720;2023-04-08T09:41:13;5.67;;;5.07;;
14381;SDS011;7275;50.328;8.720;2023-04-08T09:43:43;5.50;;;4.73;;
14381;SDS011;7275;50.328;8.720;2023-04-08T09:46:16;5.20;;;4.70;;
14381;SDS011;7275;50.328;8.720;2023-04-08T09:48:48;5.40;;;4.90;;
14381;SDS011;7275;50.328;8.720;2023-04-08T09:51:20;5.30;;;4.80;;
14381;SDS011;7275;50.328;8.720;2023-04-08T09:53:54;5.93;;;4.80;;
14381;SDS011;7275;50.328;8.720;2023-04-08T09:56:26;6.37;;;4.80;;
14381;SDS011;7275;50.328;8.720;2023-04-08T09:59:02;5.63;;;5.00;;
14381;SDS011;7275;50.328;8.720;2023-04-08T10:01:38;5.17;;;4.67;;
14381;SDS011;7275;50.328;8.720;2023-04-08T10:04:11;5.53;;;4.70;;
14381;SDS011;7275;50.328;8.720;2023-04-08T10:06:43;5.30;;;4.80;;
14381;SDS011;7275;50.328;8.720;2023-04-08T10:09:16;4.87;;;4.47;;
14381;SDS011;7275;50.328;8.720;2023-04-08T10:11:44;4.97;;;4.50;;
14381;SDS011;7275;50.328;8.720;2023-04-08T10:14:12;4.90;;;4.50;;
14381;SDS011;7275;50.328;8.720;2023-04-08T10:16:39;5.90;;;4.43;;
14381;SDS011;7275;50.328;8.720;2023-04-08T10:25:28;4.20;;;3.83;;
14381;SDS011;7275;50.328;8.720;2023-04-08T10:27:57;4.37;;;3.97;;
14381;SDS011;7275;50.328;8.720;2023-04-08T10:30:38;4.73;;;4.33;;
14381;SDS011;7275;50.328;8.720;2023-04-08T10:33:10;5.73;;;4.47;;
14381;SDS011;7275;50.328;8.720;2023-04-08T10:35:40;4.47;;;4.07;;
14381;SDS011;7275;50.328;8.720;2023-04-08T10:38:11;4.70;;;4.20;;
14381;SDS011;7275;50.328;8.720;2023-04-08T10:40:41;4.82;;;4.10;;
14381;SDS011;7275;50.328;8.720;2023-04-08T10:43:10;4.60;;;3.72;;
14381;SDS011;7275;50.328;8.720;2023-04-08T10:45:38;4.50;;;4.10;;
14381;SDS011;7275;50.328;8.720;2023-04-08T10:48:13;4.70;;;4.30;;
14381;SDS011;7275;50.328;8.720;2023-04-08T10:50:43;4.80;;;4.13;;
14381;SDS011;7275;50.328;8.720;2023-04-08T10:53:11;4.47;;;4.07;;
14381;SDS011;7275;50.328;8.720;2023-04-08T10:55:38;5.67;;;4.40;;
14381;SDS011;7275;50.328;8.720;2023-04-08T10:58:09;4.70;;;4.30;;
14381;SDS011;7275;50.328;8.720;2023-04-08T11:00:38;4.93;;;4.43;;
14381;SDS011;7275;50.328;8.720;2023-04-08T11:03:07;4.70;;;4.30;;
14381;SDS011;7275;50.328;8.720;2023-04-08T11:05:37;4.80;;;4.30;;
14381;SDS011;7275;50.328;8.720;2023-04-08T11:08:05;6.33;;;4.83;;
14381;SDS011;7275;50.328;8.720;2023-04-08T11:10:35;5.03;;;4.53;;
14381;SDS011;7275;50.328;8.720;2023-04-08T11:13:06;4.67;;;4.27;;
14381;SDS011;7275;50.328;8.720;2023-04-08T11:15:35;5.03;;;4.53;;
14381;SDS011;7275;50.328;8.720;2023-04-08T11:18:03;4.73;;;4.33;;
14381;SDS011;7275;50.328;8.720;2023-04-08T11:20:32;4.83;;;4.40;;
14381;SDS011;7275;50.328;8.720;2023-04-08T11:23:01;5.03;;;4.53;;
14381;SDS011;7275;50.328;8.720;2023-04-08T11:25:29;4.80;;;4.40;;
14381;SDS011;7275;50.328;8.720;2023-04-08T11:27:57;4.13;;;3.83;;
14381;SDS011;7275;50.328;8.720;2023-04-08T11:30:26;4.93;;;4.43;;
14381;SDS011;7275;50.328;8.720;2023-04-08T11:32:55;6.13;;;4.90;;
14381;SDS011;7275;50.328;8.720;2023-04-08T11:35:27;4.80;;;4.40;;
14381;SDS011;7275;50.328;8.720;2023-04-08T11:37:55;5.23;;;4.73;;
14381;SDS011;7275;50.328;8.720;2023-04-08T11:40:23;5.20;;;4.80;;
14381;SDS011;7275;50.328;8.720;2023-04-08T11:42:51;5.83;;;5.23;;
14381;SDS011;7275;50.328;8.720;2023-04-08T11:45:19;5.37;;;4.87;;
14381;SDS011;7275;50.328;8.720;2023-04-08T11:47:49;4.70;;;4.30;;
14381;SDS011;7275;50.328;8.720;2023-04-08T11:50:23;5.47;;;4.97;;
14381;SDS011;7275;50.328;8.720;2023-04-08T11:52:51;5.10;;;4.60;;
14381;SDS011;7275;50.328;8.720;2023-04-08T11:55:21;5.17;;;4.70;;
14381;SDS011;7275;50.328;8.720;2023-04-08T11:57:49;5.50;;;5.00;;
14381;SDS011;7275;50.328;8.720;2023-04-08T12:00:18;5.00;;;4.50;;
14381;SDS011;7275;50.328;8.720;2023-04-08T12:02:46;5.07;;;4.57;;
14381;SDS011;7275;50.328;8.720;2023-04-08T12:05:15;5.27;;;4.77;;
14381;SDS011;7275;50.328;8.720;2023-04-08T12:07:43;4.87;;;4.47;;
14381;SDS011;7275;50.328;8.720;2023-04-08T12:10:11;5.23;;;4.77;;
14381;SDS011;7275;50.328;8.720;2023-04-08T12:12:39;5.93;;;4.57;;
14381;SDS011;7275;50.328;8.720;2023-04-08T12:15:07;5.50;;;5.00;;
14381;SDS011;7275;50.328;8.720;2023-04-08T12:17:36;5.20;;;4.70;;
14381;SDS011;7275;50.328;8.720;2023-04-08T12:20:05;5.57;;;5.03;;
14381;SDS011;7275;50.328;8.720;2023-04-08T12:22:35;5.67;;;5.07;;
14381;SDS011;7275;50.328;8.720;2023-04-08T12:25:03;5.40;;;4.90;;
14381;SDS011;7275;50.328;8.720;2023-04-08T12:27:31;4.77;;;4.37;;
14381;SDS011;7275;50.328;8.720;2023-04-08T12:29:59;5.17;;;4.60;;
14381;SDS011;7275;50.328;8.720;2023-04-08T12:32:27;6.50;;;5.07;;
14381;SDS011;7275;50.328;8.720;2023-04-08T12:34:55;5.60;;;4.67;;
14381;SDS011;7275;50.328;8.720;2023-04-08T12:37:22;5.27;;;4.77;;
14381;SDS011;7275;50.328;8.720;2023-04-08T12:39:51;5.30;;;4.80;;
14381;SDS011;7275;50.328;8.720;2023-04-08T12:42:19;5.40;;;4.90;;
14381;SDS011;7275;50.328;8.720;2023-04-08T12:44:46;5.40;;;4.93;;
14381;SDS011;7275;50.328;8.720;2023-04-08T12:47:14;5.17;;;4.67;;
14381;SDS011;7275;50.328;8.720;2023-04-08T12:49:42;6.20;;;5.10;;
14381;SDS011;7275;50.328;8.720;2023-04-08T12:52:12;5.60;;;5.10;;
14381;SDS011;7275;50.328;8.720;2023-04-08T12:54:40;5.30;;;4.80;;
14381;SDS011;7275;50.328;8.720;2023-04-08T12:57:09;5.37;;;4.87;;
14381;SDS011;7275;50.328;8.720;2023-04-08T12:59:37;5.70;;;5.20;;
14381;SDS011;7275;50.328;8.720;2023-04-08T13:02:05;5.20;;;4.70;;
14381;SDS011;7275;50.328;8.720;2023-04-08T13:04:33;4.83;;;4.37;;
14381;SDS011;7275;50.328;8.720;2023-04-08T13:07:01;4.90;;;4.40;;
14381;SDS011;7275;50.328;8.720;2023-04-08T13:09:29;5.73;;;5.00;;
14381;SDS011;7275;50.328;8.720;2023-04-08T13:11:57;5.33;;;4.83;;
14381;SDS011;7275;50.328;8.720;2023-04-08T13:14:26;5.60;;;5.10;;
14381;SDS011;7275;50.328;8.720;2023-04-08T13:16:53;5.50;;;5.00;;
14381;SDS011;7275;50.328;8.720;2023-04-08T13:19:21;5.23;;;4.73;;
14381;SDS011;7275;50.328;8.720;2023-04-08T13:21:49;5.47;;;4.97;;
14381;SDS011;7275;50.328;8.720;2023-04-08T13:24:17;5.43;;;4.93;;
14381;SDS011;7275;50.328;8.720;2023-04-08T13:26:45;5.07;;;4.57;;
14381;SDS011;7275;50.328;8.720;2023-04-08T13:29:12;5.10;;;4.60;;
14381;SDS011;7275;50.328;8.720;2023-04-08T13:31:42;5.40;;;4.90;;
14381;SDS011;7275;50.328;8.720;2023-04-08T13:34:09;5.63;;;5.13;;
14381;SDS011;7275;50.328;8.720;2023-04-08T13:36:37;5.30;;;4.80;;
14381;SDS011;7275;50.328;8.720;2023-04-08T13:39:04;5.20;;;4.70;;
14381;SDS011;7275;50.328;8.720;2023-04-08T13:41:32;5.57;;;5.07;;
14381;SDS011;7275;50.328;8.720;2023-04-08T13:44:00;5.73;;;5.23;;
14381;SDS011;7275;50.328;8.720;2023-04-08T13:46:27;5.53;;;5.03;;
14381;SDS011;7275;50.328;8.720;2023-04-08T13:48:56;6.13;;;5.53;;
14381;SDS011;7275;50.328;8.720;2023-04-08T13:51:24;5.57;;;5.07;;
14381;SDS011;7275;50.328;8.720;2023-04-08T13:53:52;6.03;;;5.47;;
14381;SDS011;7275;50.328;8.720;2023-04-08T13:56:19;5.97;;;5.47;;
14381;SDS011;7275;50.328;8.720;2023-04-08T13:58:47;5.93;;;5.43;;
14381;SDS011;7275;50.328;8.720;2023-04-08T14:01:22;5.93;;;5.37;;
14381;SDS011;7275;50.328;8.720;2023-04-08T14:03:50;6.00;;;5.40;;
14381;SDS011;7275;50.328;8.720;2023-04-08T14:06:19;6.27;;;5.67;;
14381;SDS011;7275;50.328;8.720;2023-04-08T14:08:46;5.90;;;5.40;;
14381;SDS011;7275;50.328;8.720;2023-04-08T14:11:14;6.17;;;5.57;;
14381;SDS011;7275;50.328;8.720;2023-04-08T14:13:41;5.60;;;5.10;;
14381;SDS011;7275;50.328;8.720;2023-04-08T14:16:09;5.30;;;4.80;;
14381;SDS011;7275;50.328;8.720;2023-04-08T14:18:36;5.90;;;5.40;;
14381;SDS011;7275;50.328;8.720;2023-04-08T14:21:04;5.53;;;5.03;;
14381;SDS011;7275;50.328;8.720;2023-04-08T14:23:33;5.73;;;5.23;;
14381;SDS011;7275;50.328;8.720;2023-04-08T14:26:01;6.20;;;5.60;;
14381;SDS011;7275;50.328;8.720;2023-04-08T14:28:28;5.53;;;5.03;;
14381;SDS011;7275;50.328;8.720;2023-04-08T14:30:56;5.97;;;5.47;;
14381;SDS011;7275;50.328;8.720;2023-04-08T14:33:24;6.03;;;5.43;;
14381;SDS011;7275;50.328;8.720;2023-04-08T14:35:52;5.60;;;5.10;;
14381;SDS011;7275;50.328;8.720;2023-04-08T14:38:19;5.93;;;5.30;;
14381;SDS011;7275;50.328;8.720;2023-04-08T14:40:49;6.07;;;5.50;;
14381;SDS011;7275;50.328;8.720;2023-04-08T14:43:17;5.80;;;5.30;;
14381;SDS011;7275;50.328;8.720;2023-04-08T14:45:44;5.93;;;5.40;;
14381;SDS011;7275;50.328;8.720;2023-04-08T14:48:12;6.23;;;5.63;;
14381;SDS011;7275;50.328;8.720;2023-04-08T14:50:40;6.33;;;5.83;;
14381;SDS011;7275;50.328;8.720;2023-04-08T14:53:08;6.67;;;5.97;;
14381;SDS011;7275;50.328;8.720;2023-04-08T14:55:36;6.20;;;5.70;;
14381;SDS011;7275;50.328;8.720;2023-04-08T14:58:05;6.33;;;5.73;;
14381;SDS011;7275;50.328;8.720;2023-04-08T15:00:32;5.87;;;5.33;;
14381;SDS011;7275;50.328;8.720;2023-04-08T15:03:00;6.27;;;5.67;;
14381;SDS011;7275;50.328;8.720;2023-04-08T15:05:28;6.10;;;5.50;;
14381;SDS011;7275;50.328;8.720;2023-04-08T15:07:56;6.37;;;5.83;;
14381;SDS011;7275;50.328;8.720;2023-04-08T15:10:23;6.30;;;5.63;;
14381;SDS011;7275;50.328;8.720;2023-04-08T15:12:53;6.63;;;6.03;;
14381;SDS011;7275;50.328;8.720;2023-04-08T15:15:22;6.67;;;6.07;;